sensor_id;sensor_type;location;lat;lon;timestamp;temperature;humidity
10472;DHT22;5283;48.876;8.962;2022-08-19T00:01:48;19.60;99.90
10472;DHT22;5283;48.876;8.962;2022-08-19T00:04:17;19.60;99.90
10472;DHT22;5283;48.876;8.962;2022-08-19T00:06:46;19.70;99.90
10472;DHT22;5283;48.876;8.962;2022-08-19T00:09:16;19.80;99.90
10472;DHT22;5283;48.876;8.962;2022-08-19T00:11:43;19.80;99.90
10472;DHT22;5283;48.876;8.962;2022-08-19T00:14:12;19.80;99.90
10472;DHT22;5283;48.876;8.962;2022-08-19T00:16:40;19.80;99.90
10472;DHT22;5283;48.876;8.962;2022-08-19T00:19:08;19.80;99.90
10472;DHT22;5283;48.876;8.962;2022-08-19T00:21:35;19.80;99.90
10472;DHT22;5283;48.876;8.962;2022-08-19T00:24:10;19.80;99.90
10472;DHT22;5283;48.876;8.962;2022-08-19T00:26:38;19.80;99.90
10472;DHT22;5283;48.876;8.962;2022-08-19T00:29:06;19.80;99.90
10472;DHT22;5283;48.876;8.962;2022-08-19T00:31:33;19.70;99.90
10472;DHT22;5283;48.876;8.962;2022-08-19T00:34:00;19.80;99.90
10472;DHT22;5283;48.876;8.962;2022-08-19T00:36:27;19.70;99.90
10472;DHT22;5283;48.876;8.962;2022-08-19T00:38:55;19.80;99.90
10472;DHT22;5283;48.876;8.962;2022-08-19T00:41:24;19.80;99.90
10472;DHT22;5283;48.876;8.962;2022-08-19T00:44:19;19.80;99.90
10472;DHT22;5283;48.876;8.962;2022-08-19T00:46:48;19.90;99.90
10472;DHT22;5283;48.876;8.962;2022-08-19T00:49:16;19.90;99.90
10472;DHT22;5283;48.876;8.962;2022-08-19T00:51:47;19.90;99.90
10472;DHT22;5283;48.876;8.962;2022-08-19T00:54:15;19.90;99.90
10472;DHT22;5283;48.876;8.962;2022-08-19T00:56:42;19.90;99.90
10472;DHT22;5283;48.876;8.962;2022-08-19T00:59:09;19.90;99.90
10472;DHT22;5283;48.876;8.962;2022-08-19T01:01:41;19.80;99.90
10472;DHT22;5283;48.876;8.962;2022-08-19T01:04:09;19.80;99.90
10472;DHT22;5283;48.876;8.962;2022-08-19T01:06:37;19.80;99.90
10472;DHT22;5283;48.876;8.962;2022-08-19T01:09:05;19.80;99.90
10472;DHT22;5283;48.876;8.962;2022-08-19T01:11:35;19.80;99.90
10472;DHT22;5283;48.876;8.962;2022-08-19T01:14:03;19.80;99.90
10472;DHT22;5283;48.876;8.962;2022-08-19T01:16:30;19.80;99.90
10472;DHT22;5283;48.876;8.962;2022-08-19T01:18:58;19.80;99.90
10472;DHT22;5283;48.876;8.962;2022-08-19T01:21:40;19.80;99.90
10472;DHT22;5283;48.876;8.962;2022-08-19T01:24:08;19.80;99.90
10472;DHT22;5283;48.876;8.962;2022-08-19T01:26:40;19.70;99.90
10472;DHT22;5283;48.876;8.962;2022-08-19T01:29:08;19.70;99.90
10472;DHT22;5283;48.876;8.962;2022-08-19T01:31:36;19.60;99.90
10472;DHT22;5283;48.876;8.962;2022-08-19T01:34:03;19.60;99.90
10472;DHT22;5283;48.876;8.962;2022-08-19T01:36:32;19.60;99.90
10472;DHT22;5283;48.876;8.962;2022-08-19T01:39:00;19.60;99.90
10472;DHT22;5283;48.876;8.962;2022-08-19T01:41:27;19.60;99.90
10472;DHT22;5283;48.876;8.962;2022-08-19T01:43:54;19.60;99.90
10472;DHT22;5283;48.876;8.962;2022-08-19T01:46:22;19.60;99.90
10472;DHT22;5283;48.876;8.962;2022-08-19T01:48:50;19.60;99.90
10472;DHT22;5283;48.876;8.962;2022-08-19T01:51:17;19.60;99.90
10472;DHT22;5283;48.876;8.962;2022-08-19T01:53:48;19.60;99.90
10472;DHT22;5283;48.876;8.962;2022-08-19T01:56:15;19.60;99.90
10472;DHT22;5283;48.876;8.962;2022-08-19T01:58:45;19.60;99.90
10472;DHT22;5283;48.876;8.962;2022-08-19T02:01:14;19.60;99.90
10472;DHT22;5283;48.876;8.962;2022-08-19T02:03:40;19.60;99.90
10472;DHT22;5283;48.876;8.962;2022-08-19T02:06:08;19.60;99.90
10472;DHT22;5283;48.876;8.962;2022-08-19T02:08:38;19.60;99.90
10472;DHT22;5283;48.876;8.962;2022-08-19T02:11:07;19.50;99.90
10472;DHT22;5283;48.876;8.962;2022-08-19T02:13:34;19.50;99.90
10472;DHT22;5283;48.876;8.962;2022-08-19T02:16:01;19.50;99.90
10472;DHT22;5283;48.876;8.962;2022-08-19T02:18:27;19.50;99.90
10472;DHT22;5283;48.876;8.962;2022-08-19T02:20:54;19.50;99.90
10472;DHT22;5283;48.876;8.962;2022-08-19T02:23:21;19.40;99.90
10472;DHT22;5283;48.876;8.962;2022-08-19T02:25:49;19.50;99.90
10472;DHT22;5283;48.876;8.962;2022-08-19T02:28:15;19.40;99.90
10472;DHT22;5283;48.876;8.962;2022-08-19T02:30:45;19.40;99.90
10472;DHT22;5283;48.876;8.962;2022-08-19T02:33:12;19.40;99.90
10472;DHT22;5283;48.876;8.962;2022-08-19T02:35:43;19.40;99.90
10472;DHT22;5283;48.876;8.962;2022-08-19T02:38:11;19.40;99.90
10472;DHT22;5283;48.876;8.962;2022-08-19T02:40:58;19.40;99.90
10472;DHT22;5283;48.876;8.962;2022-08-19T02:43:27;19.40;99.90
10472;DHT22;5283;48.876;8.962;2022-08-19T02:45:54;19.30;99.90
10472;DHT22;5283;48.876;8.962;2022-08-19T02:48:23;19.40;99.90
10472;DHT22;5283;48.876;8.962;2022-08-19T02:50:52;19.30;99.90
10472;DHT22;5283;48.876;8.962;2022-08-19T02:53:24;19.20;99.90
10472;DHT22;5283;48.876;8.962;2022-08-19T02:55:51;19.30;99.90
10472;DHT22;5283;48.876;8.962;2022-08-19T02:58:19;19.20;99.90
10472;DHT22;5283;48.876;8.962;2022-08-19T03:00:50;19.20;99.90
10472;DHT22;5283;48.876;8.962;2022-08-19T03:03:18;19.20;99.90
10472;DHT22;5283;48.876;8.962;2022-08-19T03:05:45;19.20;99.90
10472;DHT22;5283;48.876;8.962;2022-08-19T03:08:13;19.10;99.90
10472;DHT22;5283;48.876;8.962;2022-08-19T03:10:44;19.10;99.90
10472;DHT22;5283;48.876;8.962;2022-08-19T03:13:15;19.00;99.90
10472;DHT22;5283;48.876;8.962;2022-08-19T03:15:44;19.00;99.90
10472;DHT22;5283;48.876;8.962;2022-08-19T03:18:12;19.00;99.90
10472;DHT22;5283;48.876;8.962;2022-08-19T03:20:47;19.00;99.90
10472;DHT22;5283;48.876;8.962;2022-08-19T03:23:15;19.00;99.90
10472;DHT22;5283;48.876;8.962;2022-08-19T03:25:45;19.00;99.90
10472;DHT22;5283;48.876;8.962;2022-08-19T03:28:14;18.90;99.90
10472;DHT22;5283;48.876;8.962;2022-08-19T03:30:42;18.90;99.90
10472;DHT22;5283;48.876;8.962;2022-08-19T03:33:11;18.90;99.90
10472;DHT22;5283;48.876;8.962;2022-08-19T03:35:40;18.90;99.90
10472;DHT22;5283;48.876;8.962;2022-08-19T03:38:07;18.90;99.90
10472;DHT22;5283;48.876;8.962;2022-08-19T03:40:36;18.90;99.90
10472;DHT22;5283;48.876;8.962;2022-08-19T03:43:03;18.90;99.90
10472;DHT22;5283;48.876;8.962;2022-08-19T03:45:30;18.80;99.90
10472;DHT22;5283;48.876;8.962;2022-08-19T03:47:56;18.80;99.90
10472;DHT22;5283;48.876;8.962;2022-08-19T03:50:23;18.80;99.90
10472;DHT22;5283;48.876;8.962;2022-08-19T03:52:50;18.80;99.90
10472;DHT22;5283;48.876;8.962;2022-08-19T03:55:18;18.80;99.90
10472;DHT22;5283;48.876;8.962;2022-08-19T03:57:45;18.70;99.90
10472;DHT22;5283;48.876;8.962;2022-08-19T04:00:14;18.70;99.90
10472;DHT22;5283;48.876;8.962;2022-08-19T04:02:41;18.70;99.90
10472;DHT22;5283;48.876;8.962;2022-08-19T04:05:08;18.70;99.90
10472;DHT22;5283;48.876;8.962;2022-08-19T04:07:35;18.70;99.90
10472;DHT22;5283;48.876;8.962;2022-08-19T04:10:03;18.70;99.90
10472;DHT22;5283;48.876;8.962;2022-08-19T04:12:30;18.70;99.90
10472;DHT22;5283;48.876;8.962;2022-08-19T04:14:57;18.70;99.90
10472;DHT22;5283;48.876;8.962;2022-08-19T04:17:24;18.70;99.90
10472;DHT22;5283;48.876;8.962;2022-08-19T04:19:52;18.70;99.90
10472;DHT22;5283;48.876;8.962;2022-08-19T04:22:18;18.70;99.90
10472;DHT22;5283;48.876;8.962;2022-08-19T04:24:45;18.70;99.90
10472;DHT22;5283;48.876;8.962;2022-08-19T04:27:12;18.70;99.90
10472;DHT22;5283;48.876;8.962;2022-08-19T04:29:39;18.70;99.90
10472;DHT22;5283;48.876;8.962;2022-08-19T04:32:06;18.70;99.90
10472;DHT22;5283;48.876;8.962;2022-08-19T04:34:33;18.80;99.90
10472;DHT22;5283;48.876;8.962;2022-08-19T04:37:00;18.80;99.90
10472;DHT22;5283;48.876;8.962;2022-08-19T04:39:29;18.80;99.90
10472;DHT22;5283;48.876;8.962;2022-08-19T04:42:17;18.80;99.90
10472;DHT22;5283;48.876;8.962;2022-08-19T04:45:13;18.80;99.90
10472;DHT22;5283;48.876;8.962;2022-08-19T04:47:42;18.80;99.90
10472;DHT22;5283;48.876;8.962;2022-08-19T04:50:11;18.90;99.90
10472;DHT22;5283;48.876;8.962;2022-08-19T04:52:39;18.80;99.90
10472;DHT22;5283;48.876;8.962;2022-08-19T04:55:10;18.90;99.90
10472;DHT22;5283;48.876;8.962;2022-08-19T04:57:37;18.80;99.90
10472;DHT22;5283;48.876;8.962;2022-08-19T05:00:08;18.90;99.90
10472;DHT22;5283;48.876;8.962;2022-08-19T05:02:35;18.90;99.90
10472;DHT22;5283;48.876;8.962;2022-08-19T05:05:02;18.90;99.90
10472;DHT22;5283;48.876;8.962;2022-08-19T05:07:29;18.90;99.90
10472;DHT22;5283;48.876;8.962;2022-08-19T05:09:57;18.90;99.90
10472;DHT22;5283;48.876;8.962;2022-08-19T05:12:25;19.00;99.90
10472;DHT22;5283;48.876;8.962;2022-08-19T05:14:51;19.00;99.90
10472;DHT22;5283;48.876;8.962;2022-08-19T05:17:18;19.00;99.90
10472;DHT22;5283;48.876;8.962;2022-08-19T05:19:54;19.00;99.90
10472;DHT22;5283;48.876;8.962;2022-08-19T05:22:41;19.00;99.90
10472;DHT22;5283;48.876;8.962;2022-08-19T05:25:13;19.10;99.90
10472;DHT22;5283;48.876;8.962;2022-08-19T05:27:41;19.10;99.90
10472;DHT22;5283;48.876;8.962;2022-08-19T05:30:09;19.10;99.90
10472;DHT22;5283;48.876;8.962;2022-08-19T05:32:36;19.10;99.90
10472;DHT22;5283;48.876;8.962;2022-08-19T05:35:04;19.20;99.90
10472;DHT22;5283;48.876;8.962;2022-08-19T05:37:33;19.10;99.90
10472;DHT22;5283;48.876;8.962;2022-08-19T05:40:00;19.10;99.90
10472;DHT22;5283;48.876;8.962;2022-08-19T05:42:26;19.20;99.90
10472;DHT22;5283;48.876;8.962;2022-08-19T05:44:53;19.20;99.90
10472;DHT22;5283;48.876;8.962;2022-08-19T05:47:20;19.20;99.90
10472;DHT22;5283;48.876;8.962;2022-08-19T05:49:48;19.20;99.90
10472;DHT22;5283;48.876;8.962;2022-08-19T05:52:17;19.20;99.90
10472;DHT22;5283;48.876;8.962;2022-08-19T05:54:45;19.20;99.90
10472;DHT22;5283;48.876;8.962;2022-08-19T05:57:14;19.10;99.90
10472;DHT22;5283;48.876;8.962;2022-08-19T05:59:41;19.20;99.90
10472;DHT22;5283;48.876;8.962;2022-08-19T06:02:08;19.20;99.90
10472;DHT22;5283;48.876;8.962;2022-08-19T06:04:35;19.20;99.90
10472;DHT22;5283;48.876;8.962;2022-08-19T06:07:02;19.20;99.90
10472;DHT22;5283;48.876;8.962;2022-08-19T06:09:29;19.20;99.90
10472;DHT22;5283;48.876;8.962;2022-08-19T06:11:58;19.20;99.90
10472;DHT22;5283;48.876;8.962;2022-08-19T06:14:29;19.20;99.90
10472;DHT22;5283;48.876;8.962;2022-08-19T06:16:57;19.20;99.90
10472;DHT22;5283;48.876;8.962;2022-08-19T06:19:29;19.20;99.90
10472;DHT22;5283;48.876;8.962;2022-08-19T06:21:58;19.20;99.90
10472;DHT22;5283;48.876;8.962;2022-08-19T06:24:27;19.30;99.90
10472;DHT22;5283;48.876;8.962;2022-08-19T06:26:56;19.20;99.90
10472;DHT22;5283;48.876;8.962;2022-08-19T06:29:25;19.20;99.90
10472;DHT22;5283;48.876;8.962;2022-08-19T06:31:56;19.30;99.90
10472;DHT22;5283;48.876;8.962;2022-08-19T06:34:24;19.30;99.90
10472;DHT22;5283;48.876;8.962;2022-08-19T06:36:52;19.40;99.90
10472;DHT22;5283;48.876;8.962;2022-08-19T06:39:25;19.40;99.90
10472;DHT22;5283;48.876;8.962;2022-08-19T06:41:55;19.40;99.90
10472;DHT22;5283;48.876;8.962;2022-08-19T06:44:27;19.50;99.90
10472;DHT22;5283;48.876;8.962;2022-08-19T06:46:55;19.50;99.90
10472;DHT22;5283;48.876;8.962;2022-08-19T06:49:23;19.50;99.90
10472;DHT22;5283;48.876;8.962;2022-08-19T06:51:50;19.60;99.90
10472;DHT22;5283;48.876;8.962;2022-08-19T06:54:18;19.60;99.90
10472;DHT22;5283;48.876;8.962;2022-08-19T06:56:46;19.70;99.90
10472;DHT22;5283;48.876;8.962;2022-08-19T06:59:19;19.70;99.90
10472;DHT22;5283;48.876;8.962;2022-08-19T07:01:51;19.70;99.90
10472;DHT22;5283;48.876;8.962;2022-08-19T07:04:22;19.80;99.90
10472;DHT22;5283;48.876;8.962;2022-08-19T07:06:56;19.80;99.90
10472;DHT22;5283;48.876;8.962;2022-08-19T07:09:23;19.80;99.90
10472;DHT22;5283;48.876;8.962;2022-08-19T07:11:52;19.80;99.90
10472;DHT22;5283;48.876;8.962;2022-08-19T07:14:24;19.90;99.90
10472;DHT22;5283;48.876;8.962;2022-08-19T07:16:53;19.80;99.90
10472;DHT22;5283;48.876;8.962;2022-08-19T07:19:23;19.90;99.90
10472;DHT22;5283;48.876;8.962;2022-08-19T07:21:51;19.90;99.90
10472;DHT22;5283;48.876;8.962;2022-08-19T07:24:23;19.90;99.90
10472;DHT22;5283;48.876;8.962;2022-08-19T07:26:52;19.90;99.90
10472;DHT22;5283;48.876;8.962;2022-08-19T07:29:21;19.90;99.90
10472;DHT22;5283;48.876;8.962;2022-08-19T07:31:50;19.90;99.90
10472;DHT22;5283;48.876;8.962;2022-08-19T07:34:18;19.90;99.90
10472;DHT22;5283;48.876;8.962;2022-08-19T07:36:45;20.00;99.90
10472;DHT22;5283;48.876;8.962;2022-08-19T07:39:20;20.00;99.90
10472;DHT22;5283;48.876;8.962;2022-08-19T07:41:47;20.10;99.90
10472;DHT22;5283;48.876;8.962;2022-08-19T07:44:15;20.20;99.90
10472;DHT22;5283;48.876;8.962;2022-08-19T07:46:49;20.30;99.90
10472;DHT22;5283;48.876;8.962;2022-08-19T07:49:19;20.20;99.90
10472;DHT22;5283;48.876;8.962;2022-08-19T07:51:53;20.30;99.90
10472;DHT22;5283;48.876;8.962;2022-08-19T07:54:22;20.40;99.90
10472;DHT22;5283;48.876;8.962;2022-08-19T07:56:49;20.40;99.90
10472;DHT22;5283;48.876;8.962;2022-08-19T07:59:18;20.50;99.90
10472;DHT22;5283;48.876;8.962;2022-08-19T08:01:46;20.50;99.90
10472;DHT22;5283;48.876;8.962;2022-08-19T08:04:13;20.60;99.90
10472;DHT22;5283;48.876;8.962;2022-08-19T08:06:59;20.60;99.90
10472;DHT22;5283;48.876;8.962;2022-08-19T08:09:45;20.60;99.90
10472;DHT22;5283;48.876;8.962;2022-08-19T08:12:18;20.60;99.90
10472;DHT22;5283;48.876;8.962;2022-08-19T08:15:00;20.60;99.90
10472;DHT22;5283;48.876;8.962;2022-08-19T08:17:31;20.50;99.90
10472;DHT22;5283;48.876;8.962;2022-08-19T08:19:58;20.50;99.90
10472;DHT22;5283;48.876;8.962;2022-08-19T08:22:26;20.50;99.90
10472;DHT22;5283;48.876;8.962;2022-08-19T08:25:15;20.50;99.90
10472;DHT22;5283;48.876;8.962;2022-08-19T08:27:43;20.60;99.90
10472;DHT22;5283;48.876;8.962;2022-08-19T08:30:14;20.70;99.90
10472;DHT22;5283;48.876;8.962;2022-08-19T08:32:42;20.90;99.90
10472;DHT22;5283;48.876;8.962;2022-08-19T08:35:15;21.10;99.90
10472;DHT22;5283;48.876;8.962;2022-08-19T08:37:44;21.20;99.90
10472;DHT22;5283;48.876;8.962;2022-08-19T08:40:39;21.10;99.90
10472;DHT22;5283;48.876;8.962;2022-08-19T08:43:27;21.10;99.90
10472;DHT22;5283;48.876;8.962;2022-08-19T08:46:06;21.10;99.90
10472;DHT22;5283;48.876;8.962;2022-08-19T08:48:46;21.10;99.90
10472;DHT22;5283;48.876;8.962;2022-08-19T08:51:26;21.20;99.90
10472;DHT22;5283;48.876;8.962;2022-08-19T08:53:56;21.30;99.90
10472;DHT22;5283;48.876;8.962;2022-08-19T08:56:23;21.50;99.90
10472;DHT22;5283;48.876;8.962;2022-08-19T08:59:04;21.50;99.90
10472;DHT22;5283;48.876;8.962;2022-08-19T09:01:35;21.50;99.90
10472;DHT22;5283;48.876;8.962;2022-08-19T09:04:04;21.50;99.90
10472;DHT22;5283;48.876;8.962;2022-08-19T09:09:13;21.50;99.90
10472;DHT22;5283;48.876;8.962;2022-08-19T09:17:15;21.70;99.90
10472;DHT22;5283;48.876;8.962;2022-08-19T09:19:58;21.70;99.90
10472;DHT22;5283;48.876;8.962;2022-08-19T09:22:25;21.80;99.90
10472;DHT22;5283;48.876;8.962;2022-08-19T09:24:54;21.90;99.90
10472;DHT22;5283;48.876;8.962;2022-08-19T09:27:23;21.90;99.90
10472;DHT22;5283;48.876;8.962;2022-08-19T09:29:51;21.80;99.90
10472;DHT22;5283;48.876;8.962;2022-08-19T09:32:18;21.70;99.90
10472;DHT22;5283;48.876;8.962;2022-08-19T09:34:45;22.00;99.90
10472;DHT22;5283;48.876;8.962;2022-08-19T09:37:14;21.90;99.90
10472;DHT22;5283;48.876;8.962;2022-08-19T09:39:41;22.00;99.90
10472;DHT22;5283;48.876;8.962;2022-08-19T09:42:09;21.90;99.90
10472;DHT22;5283;48.876;8.962;2022-08-19T09:44:41;21.90;99.90
10472;DHT22;5283;48.876;8.962;2022-08-19T09:47:10;22.00;99.90
10472;DHT22;5283;48.876;8.962;2022-08-19T09:49:38;22.20;99.90
10472;DHT22;5283;48.876;8.962;2022-08-19T09:52:08;22.20;99.90
10472;DHT22;5283;48.876;8.962;2022-08-19T09:54:35;22.40;99.90
10472;DHT22;5283;48.876;8.962;2022-08-19T09:57:02;22.40;99.90
10472;DHT22;5283;48.876;8.962;2022-08-19T09:59:29;22.40;99.90
10472;DHT22;5283;48.876;8.962;2022-08-19T10:01:56;22.40;99.90
10472;DHT22;5283;48.876;8.962;2022-08-19T10:04:23;22.40;99.90
10472;DHT22;5283;48.876;8.962;2022-08-19T10:07:10;22.40;99.90
10472;DHT22;5283;48.876;8.962;2022-08-19T10:09:37;22.50;99.90
10472;DHT22;5283;48.876;8.962;2022-08-19T10:12:04;22.50;99.90
10472;DHT22;5283;48.876;8.962;2022-08-19T10:14:31;22.70;99.90
10472;DHT22;5283;48.876;8.962;2022-08-19T10:16:58;22.80;99.90
10472;DHT22;5283;48.876;8.962;2022-08-19T10:19:26;22.70;99.90
10472;DHT22;5283;48.876;8.962;2022-08-19T10:21:58;22.80;99.90
10472;DHT22;5283;48.876;8.962;2022-08-19T10:24:28;22.80;99.90
10472;DHT22;5283;48.876;8.962;2022-08-19T10:26:56;23.00;99.90
10472;DHT22;5283;48.876;8.962;2022-08-19T10:29:23;23.10;99.90
10472;DHT22;5283;48.876;8.962;2022-08-19T10:31:49;23.20;99.90
10472;DHT22;5283;48.876;8.962;2022-08-19T10:34:16;23.20;99.90
10472;DHT22;5283;48.876;8.962;2022-08-19T10:36:52;23.20;99.90
10472;DHT22;5283;48.876;8.962;2022-08-19T10:39:21;23.30;99.90
10472;DHT22;5283;48.876;8.962;2022-08-19T10:41:47;23.30;99.90
10472;DHT22;5283;48.876;8.962;2022-08-19T10:44:14;23.20;99.90
10472;DHT22;5283;48.876;8.962;2022-08-19T10:46:43;23.30;99.90
10472;DHT22;5283;48.876;8.962;2022-08-19T10:49:13;23.40;99.90
10472;DHT22;5283;48.876;8.962;2022-08-19T10:51:41;23.60;99.90
10472;DHT22;5283;48.876;8.962;2022-08-19T10:54:26;23.90;99.90
10472;DHT22;5283;48.876;8.962;2022-08-19T10:57:14;24.10;99.90
10472;DHT22;5283;48.876;8.962;2022-08-19T10:59:42;24.50;99.90
10472;DHT22;5283;48.876;8.962;2022-08-19T11:02:10;24.80;99.90
10472;DHT22;5283;48.876;8.962;2022-08-19T11:04:39;25.00;99.90
10472;DHT22;5283;48.876;8.962;2022-08-19T11:07:07;25.50;99.90
10472;DHT22;5283;48.876;8.962;2022-08-19T11:09:40;25.70;99.90
10472;DHT22;5283;48.876;8.962;2022-08-19T11:12:08;25.60;99.90
10472;DHT22;5283;48.876;8.962;2022-08-19T11:14:36;25.50;99.90
10472;DHT22;5283;48.876;8.962;2022-08-19T11:17:04;25.20;99.90
10472;DHT22;5283;48.876;8.962;2022-08-19T11:19:32;25.00;99.90
10472;DHT22;5283;48.876;8.962;2022-08-19T11:21:59;24.60;99.90
10472;DHT22;5283;48.876;8.962;2022-08-19T11:24:28;24.40;99.90
10472;DHT22;5283;48.876;8.962;2022-08-19T11:27:02;24.30;99.90
10472;DHT22;5283;48.876;8.962;2022-08-19T11:29:31;24.40;99.90
10472;DHT22;5283;48.876;8.962;2022-08-19T11:31:58;24.40;99.90
10472;DHT22;5283;48.876;8.962;2022-08-19T11:34:28;24.50;99.90
10472;DHT22;5283;48.876;8.962;2022-08-19T11:36:56;24.70;99.90
10472;DHT22;5283;48.876;8.962;2022-08-19T11:39:28;25.00;99.90
10472;DHT22;5283;48.876;8.962;2022-08-19T11:41:55;25.30;99.90
10472;DHT22;5283;48.876;8.962;2022-08-19T11:44:22;25.50;99.90
10472;DHT22;5283;48.876;8.962;2022-08-19T11:46:49;25.60;99.90
10472;DHT22;5283;48.876;8.962;2022-08-19T11:49:17;25.40;99.90
10472;DHT22;5283;48.876;8.962;2022-08-19T11:51:46;25.20;99.90
10472;DHT22;5283;48.876;8.962;2022-08-19T11:54:14;24.80;99.90
10472;DHT22;5283;48.876;8.962;2022-08-19T11:56:41;24.60;99.90
10472;DHT22;5283;48.876;8.962;2022-08-19T11:59:08;24.50;99.90
10472;DHT22;5283;48.876;8.962;2022-08-19T12:01:39;24.60;99.90
10472;DHT22;5283;48.876;8.962;2022-08-19T12:04:09;24.70;99.90
10472;DHT22;5283;48.876;8.962;2022-08-19T12:06:38;25.00;99.90
10472;DHT22;5283;48.876;8.962;2022-08-19T12:09:08;25.10;99.90
10472;DHT22;5283;48.876;8.962;2022-08-19T12:11:37;25.20;99.90
10472;DHT22;5283;48.876;8.962;2022-08-19T12:14:05;25.20;99.90
10472;DHT22;5283;48.876;8.962;2022-08-19T12:16:32;25.30;99.90
10472;DHT22;5283;48.876;8.962;2022-08-19T12:18:59;25.30;99.90
10472;DHT22;5283;48.876;8.962;2022-08-19T12:21:31;25.30;99.90
10472;DHT22;5283;48.876;8.962;2022-08-19T12:23:59;25.40;99.90
10472;DHT22;5283;48.876;8.962;2022-08-19T12:26:28;25.50;99.90
10472;DHT22;5283;48.876;8.962;2022-08-19T12:28:55;25.70;99.90
10472;DHT22;5283;48.876;8.962;2022-08-19T12:31:22;25.60;99.90
10472;DHT22;5283;48.876;8.962;2022-08-19T12:33:48;25.60;99.90
10472;DHT22;5283;48.876;8.962;2022-08-19T12:36:16;25.50;99.90
10472;DHT22;5283;48.876;8.962;2022-08-19T12:38:44;25.50;99.90
10472;DHT22;5283;48.876;8.962;2022-08-19T12:41:14;25.60;99.90
10472;DHT22;5283;48.876;8.962;2022-08-19T12:43:41;25.80;99.90
10472;DHT22;5283;48.876;8.962;2022-08-19T12:46:09;26.10;99.90
10472;DHT22;5283;48.876;8.962;2022-08-19T12:48:36;26.40;99.90
10472;DHT22;5283;48.876;8.962;2022-08-19T12:51:08;26.60;99.90
10472;DHT22;5283;48.876;8.962;2022-08-19T12:53:36;27.10;99.90
10472;DHT22;5283;48.876;8.962;2022-08-19T12:56:04;27.10;99.90
10472;DHT22;5283;48.876;8.962;2022-08-19T12:58:31;26.80;99.90
10472;DHT22;5283;48.876;8.962;2022-08-19T13:01:14;26.60;99.90
10472;DHT22;5283;48.876;8.962;2022-08-19T13:03:45;26.30;99.90
10472;DHT22;5283;48.876;8.962;2022-08-19T13:06:12;26.30;99.90
10472;DHT22;5283;48.876;8.962;2022-08-19T13:08:40;26.00;99.90
10472;DHT22;5283;48.876;8.962;2022-08-19T13:11:12;26.00;99.90
10472;DHT22;5283;48.876;8.962;2022-08-19T13:13:41;26.00;99.90
10472;DHT22;5283;48.876;8.962;2022-08-19T13:16:10;26.00;99.90
10472;DHT22;5283;48.876;8.962;2022-08-19T13:18:38;26.10;99.90
10472;DHT22;5283;48.876;8.962;2022-08-19T13:21:08;26.10;99.90
10472;DHT22;5283;48.876;8.962;2022-08-19T13:23:35;26.00;99.90
10472;DHT22;5283;48.876;8.962;2022-08-19T13:26:05;25.90;99.90
10472;DHT22;5283;48.876;8.962;2022-08-19T13:28:33;25.80;99.90
10472;DHT22;5283;48.876;8.962;2022-08-19T13:31:20;25.90;99.90
10472;DHT22;5283;48.876;8.962;2022-08-19T13:34:06;26.00;99.90
10472;DHT22;5283;48.876;8.962;2022-08-19T13:36:34;26.00;99.90
10472;DHT22;5283;48.876;8.962;2022-08-19T13:39:01;26.00;99.90
10472;DHT22;5283;48.876;8.962;2022-08-19T13:41:27;26.00;99.90
10472;DHT22;5283;48.876;8.962;2022-08-19T13:43:55;26.00;99.90
10472;DHT22;5283;48.876;8.962;2022-08-19T13:46:21;26.00;99.90
10472;DHT22;5283;48.876;8.962;2022-08-19T13:48:49;25.80;99.90
10472;DHT22;5283;48.876;8.962;2022-08-19T13:51:17;25.70;99.90
10472;DHT22;5283;48.876;8.962;2022-08-19T13:53:44;25.50;99.90
10472;DHT22;5283;48.876;8.962;2022-08-19T13:56:15;25.50;99.90
10472;DHT22;5283;48.876;8.962;2022-08-19T13:58:42;25.50;99.90
10472;DHT22;5283;48.876;8.962;2022-08-19T14:01:10;25.50;99.90
10472;DHT22;5283;48.876;8.962;2022-08-19T14:03:38;25.50;99.90
10472;DHT22;5283;48.876;8.962;2022-08-19T14:06:05;25.60;99.90
10472;DHT22;5283;48.876;8.962;2022-08-19T14:08:32;25.80;99.90
10472;DHT22;5283;48.876;8.962;2022-08-19T14:10:59;26.00;99.90
10472;DHT22;5283;48.876;8.962;2022-08-19T14:13:26;26.10;99.90
10472;DHT22;5283;48.876;8.962;2022-08-19T14:15:53;26.30;99.90
10472;DHT22;5283;48.876;8.962;2022-08-19T14:18:20;26.40;99.90
10472;DHT22;5283;48.876;8.962;2022-08-19T14:20:47;26.40;99.90
10472;DHT22;5283;48.876;8.962;2022-08-19T14:23:13;26.50;99.90
10472;DHT22;5283;48.876;8.962;2022-08-19T14:25:40;26.40;99.90
10472;DHT22;5283;48.876;8.962;2022-08-19T14:28:07;26.30;99.90
10472;DHT22;5283;48.876;8.962;2022-08-19T14:30:36;26.20;99.90
10472;DHT22;5283;48.876;8.962;2022-08-19T14:33:05;26.00;99.90
10472;DHT22;5283;48.876;8.962;2022-08-19T14:35:34;26.00;99.90
10472;DHT22;5283;48.876;8.962;2022-08-19T14:38:03;25.90;99.90
10472;DHT22;5283;48.876;8.962;2022-08-19T14:40:31;25.90;99.90
10472;DHT22;5283;48.876;8.962;2022-08-19T14:43:00;26.00;99.90
10472;DHT22;5283;48.876;8.962;2022-08-19T14:45:32;26.00;99.90
10472;DHT22;5283;48.876;8.962;2022-08-19T14:47:59;26.00;99.90
10472;DHT22;5283;48.876;8.962;2022-08-19T14:50:27;26.00;99.90
10472;DHT22;5283;48.876;8.962;2022-08-19T14:53:20;26.30;99.90
10472;DHT22;5283;48.876;8.962;2022-08-19T14:55:47;26.90;99.90
10472;DHT22;5283;48.876;8.962;2022-08-19T14:58:15;27.30;99.90
10472;DHT22;5283;48.876;8.962;2022-08-19T15:00:42;27.50;99.90
10472;DHT22;5283;48.876;8.962;2022-08-19T15:03:09;27.50;99.90
10472;DHT22;5283;48.876;8.962;2022-08-19T15:05:35;27.20;99.90
10472;DHT22;5283;48.876;8.962;2022-08-19T15:08:03;27.30;99.90
10472;DHT22;5283;48.876;8.962;2022-08-19T15:10:30;27.20;99.90
10472;DHT22;5283;48.876;8.962;2022-08-19T15:12:57;27.30;99.90
10472;DHT22;5283;48.876;8.962;2022-08-19T15:15:25;27.10;99.90
10472;DHT22;5283;48.876;8.962;2022-08-19T15:17:51;27.00;99.90
10472;DHT22;5283;48.876;8.962;2022-08-19T15:20:19;27.00;99.90
10472;DHT22;5283;48.876;8.962;2022-08-19T15:22:49;26.90;99.90
10472;DHT22;5283;48.876;8.962;2022-08-19T15:25:17;26.70;99.90
10472;DHT22;5283;48.876;8.962;2022-08-19T15:27:45;26.70;99.90
10472;DHT22;5283;48.876;8.962;2022-08-19T15:30:17;26.50;99.90
10472;DHT22;5283;48.876;8.962;2022-08-19T15:32:45;26.50;99.90
10472;DHT22;5283;48.876;8.962;2022-08-19T15:35:14;26.50;99.90
10472;DHT22;5283;48.876;8.962;2022-08-19T15:37:41;26.40;99.90
10472;DHT22;5283;48.876;8.962;2022-08-19T15:40:08;26.40;99.90
10472;DHT22;5283;48.876;8.962;2022-08-19T15:42:36;26.30;99.90
10472;DHT22;5283;48.876;8.962;2022-08-19T15:45:07;26.20;99.90
10472;DHT22;5283;48.876;8.962;2022-08-19T15:47:34;26.20;99.90
10472;DHT22;5283;48.876;8.962;2022-08-19T15:50:19;26.10;99.90
10472;DHT22;5283;48.876;8.962;2022-08-19T15:52:56;26.10;99.90
10472;DHT22;5283;48.876;8.962;2022-08-19T15:55:26;26.10;99.90
10472;DHT22;5283;48.876;8.962;2022-08-19T15:57:53;26.10;99.90
10472;DHT22;5283;48.876;8.962;2022-08-19T16:00:39;26.10;99.90
10472;DHT22;5283;48.876;8.962;2022-08-19T16:03:24;26.00;99.90
10472;DHT22;5283;48.876;8.962;2022-08-19T16:06:10;26.00;99.90
10472;DHT22;5283;48.876;8.962;2022-08-19T16:08:57;25.90;99.90